sensor_id;sensor_type;location;lat;lon;timestamp;P1;durP1;ratioP1;P2;durP2;ratioP2
70320;SDS011;61127;55.826;37.046;2023-05-23T00:01:05;24.58;;;16.00;;
70320;SDS011;61127;55.826;37.046;2023-05-23T00:03:32;27.02;;;15.07;;
70320;SDS011;61127;55.826;37.046;2023-05-23T00:05:58;26.70;;;16.00;;
70320;SDS011;61127;55.826;37.046;2023-05-23T00:08:26;25.55;;;15.88;;
70320;SDS011;61127;55.826;37.046;2023-05-23T00:10:52;26.92;;;15.57;;
70320;SDS011;61127;55.826;37.046;2023-05-23T00:13:18;23.27;;;15.67;;
70320;SDS011;61127;55.826;37.046;2023-05-23T00:15:44;23.90;;;15.35;;
70320;SDS011;61127;55.826;37.046;2023-05-23T00:18:11;25.58;;;15.48;;
70320;SDS011;61127;55.826;37.046;2023-05-23T00:20:38;24.50;;;15.32;;
70320;SDS011;61127;55.826;37.046;2023-05-23T00:23:06;24.23;;;15.93;;
70320;SDS011;61127;55.826;37.046;2023-05-23T00:25:35;22.23;;;15.33;;
70320;SDS011;61127;55.826;37.046;2023-05-23T00:28:03;26.23;;;15.70;;
70320;SDS011;61127;55.826;37.046;2023-05-23T00:30:31;26.40;;;15.88;;
70320;SDS011;61127;55.826;37.046;2023-05-23T00:33:00;25.33;;;16.35;;
70320;SDS011;61127;55.826;37.046;2023-05-23T00:35:27;26.55;;;16.25;;
70320;SDS011;61127;55.826;37.046;2023-05-23T00:37:55;28.47;;;16.10;;
70320;SDS011;61127;55.826;37.046;2023-05-23T00:40:21;26.98;;;16.88;;
70320;SDS011;61127;55.826;37.046;2023-05-23T00:42:48;26.20;;;16.67;;
70320;SDS011;61127;55.826;37.046;2023-05-23T00:45:14;27.23;;;17.00;;
70320;SDS011;61127;55.826;37.046;2023-05-23T00:47:42;34.03;;;17.73;;
70320;SDS011;61127;55.826;37.046;2023-05-23T00:50:12;33.83;;;17.83;;
70320;SDS011;61127;55.826;37.046;2023-05-23T00:52:41;26.63;;;17.70;;
70320;SDS011;61127;55.826;37.046;2023-05-23T00:55:08;28.00;;;17.17;;
70320;SDS011;61127;55.826;37.046;2023-05-23T00:57:35;28.52;;;17.30;;
70320;SDS011;61127;55.826;37.046;2023-05-23T01:00:09;28.93;;;17.60;;
70320;SDS011;61127;55.826;37.046;2023-05-23T01:02:43;28.50;;;17.23;;
70320;SDS011;61127;55.826;37.046;2023-05-23T01:05:11;25.75;;;16.70;;
70320;SDS011;61127;55.826;37.046;2023-05-23T01:07:46;28.40;;;17.33;;
70320;SDS011;61127;55.826;37.046;2023-05-23T01:10:18;29.98;;;17.95;;
70320;SDS011;61127;55.826;37.046;2023-05-23T01:15:20;27.95;;;16.70;;
70320;SDS011;61127;55.826;37.046;2023-05-23T01:18:06;28.83;;;17.60;;
70320;SDS011;61127;55.826;37.046;2023-05-23T01:20:38;28.38;;;16.80;;
70320;SDS011;61127;55.826;37.046;2023-05-23T01:27:00;30.07;;;16.93;;
70320;SDS011;61127;55.826;37.046;2023-05-23T01:29:27;27.60;;;17.10;;
70320;SDS011;61127;55.826;37.046;2023-05-23T01:32:01;27.80;;;17.17;;
70320;SDS011;61127;55.826;37.046;2023-05-23T01:34:31;28.55;;;16.52;;
70320;SDS011;61127;55.826;37.046;2023-05-23T01:36:59;30.33;;;17.38;;
70320;SDS011;61127;55.826;37.046;2023-05-23T01:39:25;27.57;;;17.13;;
70320;SDS011;61127;55.826;37.046;2023-05-23T01:41:52;27.70;;;16.70;;
70320;SDS011;61127;55.826;37.046;2023-05-23T01:44:19;32.53;;;18.08;;
70320;SDS011;61127;55.826;37.046;2023-05-23T01:46:46;28.30;;;16.85;;
70320;SDS011;61127;55.826;37.046;2023-05-23T01:49:13;26.23;;;17.33;;
70320;SDS011;61127;55.826;37.046;2023-05-23T01:51:41;35.08;;;17.08;;
70320;SDS011;61127;55.826;37.046;2023-05-23T01:54:08;30.02;;;17.83;;
70320;SDS011;61127;55.826;37.046;2023-05-23T01:56:35;25.23;;;16.27;;
70320;SDS011;61127;55.826;37.046;2023-05-23T01:59:01;24.55;;;16.58;;
70320;SDS011;61127;55.826;37.046;2023-05-23T02:01:37;29.13;;;17.13;;
70320;SDS011;61127;55.826;37.046;2023-05-23T02:04:09;25.40;;;16.40;;
70320;SDS011;61127;55.826;37.046;2023-05-23T02:06:35;24.73;;;16.63;;
70320;SDS011;61127;55.826;37.046;2023-05-23T02:09:12;27.45;;;17.15;;
70320;SDS011;61127;55.826;37.046;2023-05-23T02:11:47;27.42;;;17.30;;
70320;SDS011;61127;55.826;37.046;2023-05-23T02:14:14;27.57;;;16.37;;
70320;SDS011;61127;55.826;37.046;2023-05-23T02:16:41;28.30;;;15.35;;
70320;SDS011;61127;55.826;37.046;2023-05-23T02:19:07;22.70;;;14.82;;
70320;SDS011;61127;55.826;37.046;2023-05-23T02:21:33;22.67;;;15.35;;
70320;SDS011;61127;55.826;37.046;2023-05-23T02:24:02;27.10;;;15.10;;
70320;SDS011;61127;55.826;37.046;2023-05-23T02:26:29;21.87;;;13.37;;
70320;SDS011;61127;55.826;37.046;2023-05-23T02:28:55;20.55;;;13.80;;
70320;SDS011;61127;55.826;37.046;2023-05-23T02:31:21;23.90;;;15.68;;
70320;SDS011;61127;55.826;37.046;2023-05-23T02:33:48;29.27;;;16.80;;
70320;SDS011;61127;55.826;37.046;2023-05-23T02:40:15;25.55;;;15.60;;
70320;SDS011;61127;55.826;37.046;2023-05-23T02:43:01;27.50;;;16.67;;
70320;SDS011;61127;55.826;37.046;2023-05-23T02:45:41;25.20;;;15.77;;
70320;SDS011;61127;55.826;37.046;2023-05-23T02:48:08;26.27;;;17.27;;
70320;SDS011;61127;55.826;37.046;2023-05-23T02:50:36;25.30;;;16.03;;
70320;SDS011;61127;55.826;37.046;2023-05-23T02:53:02;27.98;;;16.80;;
70320;SDS011;61127;55.826;37.046;2023-05-23T02:55:29;27.02;;;16.60;;
70320;SDS011;61127;55.826;37.046;2023-05-23T02:57:57;26.10;;;16.80;;
70320;SDS011;61127;55.826;37.046;2023-05-23T03:03:56;26.47;;;15.10;;
70320;SDS011;61127;55.826;37.046;2023-05-23T03:06:23;24.42;;;13.65;;
70320;SDS011;61127;55.826;37.046;2023-05-23T03:08:49;22.15;;;14.13;;
70320;SDS011;61127;55.826;37.046;2023-05-23T03:11:16;23.48;;;15.65;;
70320;SDS011;61127;55.826;37.046;2023-05-23T03:13:43;29.30;;;15.05;;
70320;SDS011;61127;55.826;37.046;2023-05-23T03:16:09;19.17;;;13.40;;
70320;SDS011;61127;55.826;37.046;2023-05-23T03:18:38;21.25;;;14.70;;
70320;SDS011;61127;55.826;37.046;2023-05-23T03:21:06;25.70;;;15.30;;
70320;SDS011;61127;55.826;37.046;2023-05-23T03:23:33;26.88;;;16.45;;
70320;SDS011;61127;55.826;37.046;2023-05-23T03:26:02;30.70;;;16.30;;
70320;SDS011;61127;55.826;37.046;2023-05-23T03:28:31;18.40;;;12.40;;
70320;SDS011;61127;55.826;37.046;2023-05-23T03:30:57;18.55;;;12.75;;
70320;SDS011;61127;55.826;37.046;2023-05-23T03:33:24;21.88;;;13.20;;
70320;SDS011;61127;55.826;37.046;2023-05-23T03:35:51;19.95;;;13.38;;
70320;SDS011;61127;55.826;37.046;2023-05-23T03:38:17;21.15;;;13.77;;
70320;SDS011;61127;55.826;37.046;2023-05-23T03:40:44;20.73;;;13.37;;
70320;SDS011;61127;55.826;37.046;2023-05-23T03:43:10;16.50;;;11.75;;
70320;SDS011;61127;55.826;37.046;2023-05-23T03:45:40;19.17;;;12.07;;
70320;SDS011;61127;55.826;37.046;2023-05-23T03:48:11;22.00;;;11.80;;
70320;SDS011;61127;55.826;37.046;2023-05-23T03:50:38;16.85;;;11.98;;
70320;SDS011;61127;55.826;37.046;2023-05-23T03:53:05;22.07;;;13.23;;
70320;SDS011;61127;55.826;37.046;2023-05-23T03:55:31;20.13;;;12.63;;
70320;SDS011;61127;55.826;37.046;2023-05-23T03:57:58;20.58;;;13.13;;
70320;SDS011;61127;55.826;37.046;2023-05-23T04:00:25;18.85;;;13.23;;
70320;SDS011;61127;55.826;37.046;2023-05-23T04:02:51;21.05;;;12.75;;
70320;SDS011;61127;55.826;37.046;2023-05-23T04:05:21;17.60;;;11.63;;
70320;SDS011;61127;55.826;37.046;2023-05-23T04:07:48;20.08;;;11.73;;
70320;SDS011;61127;55.826;37.046;2023-05-23T04:10:16;19.55;;;11.77;;
70320;SDS011;61127;55.826;37.046;2023-05-23T04:12:43;20.55;;;11.73;;
70320;SDS011;61127;55.826;37.046;2023-05-23T04:15:13;18.10;;;12.20;;
70320;SDS011;61127;55.826;37.046;2023-05-23T04:18:04;18.87;;;11.97;;
70320;SDS011;61127;55.826;37.046;2023-05-23T04:20:32;16.45;;;11.38;;
70320;SDS011;61127;55.826;37.046;2023-05-23T04:22:58;19.45;;;12.13;;
70320;SDS011;61127;55.826;37.046;2023-05-23T04:25:25;17.73;;;11.90;;
70320;SDS011;61127;55.826;37.046;2023-05-23T04:28:05;15.70;;;10.75;;
70320;SDS011;61127;55.826;37.046;2023-05-23T04:30:31;18.50;;;11.67;;
70320;SDS011;61127;55.826;37.046;2023-05-23T04:32:58;19.90;;;11.73;;
70320;SDS011;61127;55.826;37.046;2023-05-23T04:35:25;19.63;;;11.15;;
70320;SDS011;61127;55.826;37.046;2023-05-23T04:37:53;19.52;;;10.27;;
70320;SDS011;61127;55.826;37.046;2023-05-23T04:40:23;20.40;;;10.63;;
70320;SDS011;61127;55.826;37.046;2023-05-23T04:43:01;13.97;;;9.83;;
70320;SDS011;61127;55.826;37.046;2023-05-23T04:45:36;16.15;;;10.05;;
70320;SDS011;61127;55.826;37.046;2023-05-23T04:48:22;16.90;;;10.60;;
70320;SDS011;61127;55.826;37.046;2023-05-23T04:50:49;18.52;;;10.77;;
70320;SDS011;61127;55.826;37.046;2023-05-23T04:53:17;15.50;;;9.48;;
70320;SDS011;61127;55.826;37.046;2023-05-23T04:55:44;14.07;;;9.57;;
70320;SDS011;61127;55.826;37.046;2023-05-23T04:58:15;14.82;;;9.57;;
70320;SDS011;61127;55.826;37.046;2023-05-23T05:00:41;17.42;;;10.18;;
70320;SDS011;61127;55.826;37.046;2023-05-23T05:03:07;14.90;;;9.75;;
70320;SDS011;61127;55.826;37.046;2023-05-23T05:05:41;14.30;;;9.53;;
70320;SDS011;61127;55.826;37.046;2023-05-23T05:08:07;15.93;;;9.93;;
70320;SDS011;61127;55.826;37.046;2023-05-23T05:10:34;15.30;;;9.55;;
70320;SDS011;61127;55.826;37.046;2023-05-23T05:13:01;17.20;;;10.50;;
70320;SDS011;61127;55.826;37.046;2023-05-23T05:15:34;16.35;;;10.35;;
70320;SDS011;61127;55.826;37.046;2023-05-23T05:18:01;15.13;;;10.00;;
70320;SDS011;61127;55.826;37.046;2023-05-23T05:20:28;16.73;;;9.88;;
70320;SDS011;61127;55.826;37.046;2023-05-23T05:22:55;16.80;;;9.45;;
70320;SDS011;61127;55.826;37.046;2023-05-23T05:25:26;13.35;;;9.75;;
70320;SDS011;61127;55.826;37.046;2023-05-23T05:27:59;16.15;;;10.20;;
70320;SDS011;61127;55.826;37.046;2023-05-23T05:30:30;16.73;;;9.40;;
70320;SDS011;61127;55.826;37.046;2023-05-23T05:33:01;16.05;;;9.48;;
70320;SDS011;61127;55.826;37.046;2023-05-23T05:35:32;17.40;;;9.73;;
70320;SDS011;61127;55.826;37.046;2023-05-23T05:38:00;19.40;;;9.70;;
70320;SDS011;61127;55.826;37.046;2023-05-23T05:40:30;13.82;;;9.00;;
70320;SDS011;61127;55.826;37.046;2023-05-23T05:42:57;16.63;;;9.27;;
70320;SDS011;61127;55.826;37.046;2023-05-23T05:45:23;16.70;;;8.85;;
70320;SDS011;61127;55.826;37.046;2023-05-23T05:47:50;16.10;;;8.98;;
70320;SDS011;61127;55.826;37.046;2023-05-23T05:50:18;13.05;;;8.10;;
70320;SDS011;61127;55.826;37.046;2023-05-23T05:52:45;15.90;;;7.97;;
70320;SDS011;61127;55.826;37.046;2023-05-23T05:55:12;13.27;;;8.00;;
70320;SDS011;61127;55.826;37.046;2023-05-23T05:57:43;14.75;;;7.95;;
70320;SDS011;61127;55.826;37.046;2023-05-23T06:00:11;14.10;;;8.38;;
70320;SDS011;61127;55.826;37.046;2023-05-23T06:02:45;13.63;;;7.60;;
70320;SDS011;61127;55.826;37.046;2023-05-23T06:05:47;17.70;;;8.20;;
70320;SDS011;61127;55.826;37.046;2023-05-23T06:08:13;19.33;;;7.67;;
70320;SDS011;61127;55.826;37.046;2023-05-23T06:10:39;18.60;;;8.15;;
70320;SDS011;61127;55.826;37.046;2023-05-23T06:13:05;17.75;;;8.00;;
70320;SDS011;61127;55.826;37.046;2023-05-23T06:15:32;16.98;;;8.18;;
70320;SDS011;61127;55.826;37.046;2023-05-23T06:17:59;14.60;;;7.90;;
70320;SDS011;61127;55.826;37.046;2023-05-23T06:20:25;21.85;;;8.13;;
70320;SDS011;61127;55.826;37.046;2023-05-23T06:22:53;14.73;;;7.13;;
70320;SDS011;61127;55.826;37.046;2023-05-23T06:25:19;15.77;;;7.43;;
70320;SDS011;61127;55.826;37.046;2023-05-23T06:27:46;15.73;;;6.85;;
70320;SDS011;61127;55.826;37.046;2023-05-23T06:30:13;14.77;;;6.90;;
70320;SDS011;61127;55.826;37.046;2023-05-23T06:32:39;16.35;;;5.90;;
70320;SDS011;61127;55.826;37.046;2023-05-23T06:35:05;16.42;;;5.85;;
70320;SDS011;61127;55.826;37.046;2023-05-23T06:37:32;13.43;;;6.20;;
70320;SDS011;61127;55.826;37.046;2023-05-23T06:39:59;12.95;;;6.70;;
70320;SDS011;61127;55.826;37.046;2023-05-23T06:42:26;14.30;;;6.57;;
70320;SDS011;61127;55.826;37.046;2023-05-23T06:45:08;15.88;;;6.10;;
70320;SDS011;61127;55.826;37.046;2023-05-23T06:47:34;14.73;;;6.03;;
70320;SDS011;61127;55.826;37.046;2023-05-23T06:50:01;11.95;;;5.85;;
70320;SDS011;61127;55.826;37.046;2023-05-23T06:52:30;13.98;;;6.28;;
70320;SDS011;61127;55.826;37.046;2023-05-23T06:54:57;15.73;;;6.20;;
70320;SDS011;61127;55.826;37.046;2023-05-23T06:57:23;20.58;;;6.28;;
70320;SDS011;61127;55.826;37.046;2023-05-23T06:59:50;10.70;;;5.68;;
70320;SDS011;61127;55.826;37.046;2023-05-23T07:02:16;13.27;;;5.65;;
70320;SDS011;61127;55.826;37.046;2023-05-23T07:04:42;12.60;;;5.73;;
70320;SDS011;61127;55.826;37.046;2023-05-23T07:07:15;12.25;;;5.50;;
70320;SDS011;61127;55.826;37.046;2023-05-23T07:09:42;16.30;;;5.68;;
70320;SDS011;61127;55.826;37.046;2023-05-23T07:12:13;9.77;;;5.78;;
70320;SDS011;61127;55.826;37.046;2023-05-23T07:14:42;10.95;;;5.38;;
70320;SDS011;61127;55.826;37.046;2023-05-23T07:17:09;15.23;;;5.37;;
70320;SDS011;61127;55.826;37.046;2023-05-23T07:19:36;12.43;;;5.35;;
70320;SDS011;61127;55.826;37.046;2023-05-23T07:22:02;12.32;;;5.20;;
70320;SDS011;61127;55.826;37.046;2023-05-23T07:24:30;13.63;;;5.03;;
70320;SDS011;61127;55.826;37.046;2023-05-23T07:26:56;14.80;;;5.20;;
70320;SDS011;61127;55.826;37.046;2023-05-23T07:29:23;11.63;;;4.37;;
70320;SDS011;61127;55.826;37.046;2023-05-23T07:31:51;11.23;;;4.80;;
70320;SDS011;61127;55.826;37.046;2023-05-23T07:34:19;15.25;;;5.18;;
70320;SDS011;61127;55.826;37.046;2023-05-23T07:36:53;15.30;;;4.68;;
70320;SDS011;61127;55.826;37.046;2023-05-23T07:39:20;13.38;;;4.70;;
70320;SDS011;61127;55.826;37.046;2023-05-23T07:41:49;11.77;;;4.87;;
70320;SDS011;61127;55.826;37.046;2023-05-23T07:44:17;11.35;;;5.10;;
70320;SDS011;61127;55.826;37.046;2023-05-23T07:46:44;19.10;;;5.50;;
70320;SDS011;61127;55.826;37.046;2023-05-23T07:49:10;12.52;;;4.53;;
70320;SDS011;61127;55.826;37.046;2023-05-23T07:51:37;10.95;;;5.20;;
70320;SDS011;61127;55.826;37.046;2023-05-23T07:54:04;20.70;;;4.53;;
70320;SDS011;61127;55.826;37.046;2023-05-23T07:56:31;14.73;;;4.72;;
70320;SDS011;61127;55.826;37.046;2023-05-23T07:58:57;10.07;;;4.60;;
70320;SDS011;61127;55.826;37.046;2023-05-23T08:01:23;14.18;;;4.88;;
70320;SDS011;61127;55.826;37.046;2023-05-23T08:03:58;14.33;;;4.43;;
70320;SDS011;61127;55.826;37.046;2023-05-23T08:06:31;10.52;;;4.25;;
70320;SDS011;61127;55.826;37.046;2023-05-23T08:09:00;11.07;;;4.00;;
70320;SDS011;61127;55.826;37.046;2023-05-23T08:11:27;13.88;;;4.13;;
70320;SDS011;61127;55.826;37.046;2023-05-23T08:13:55;13.40;;;4.03;;
70320;SDS011;61127;55.826;37.046;2023-05-23T08:16:38;13.70;;;4.00;;
70320;SDS011;61127;55.826;37.046;2023-05-23T08:19:14;15.32;;;4.78;;
70320;SDS011;61127;55.826;37.046;2023-05-23T08:21:40;9.70;;;4.00;;
70320;SDS011;61127;55.826;37.046;2023-05-23T08:24:07;7.47;;;3.95;;
70320;SDS011;61127;55.826;37.046;2023-05-23T08:26:35;8.07;;;2.70;;
70320;SDS011;61127;55.826;37.046;2023-05-23T08:29:04;8.13;;;3.03;;
70320;SDS011;61127;55.826;37.046;2023-05-23T08:31:31;10.00;;;3.15;;
70320;SDS011;61127;55.826;37.046;2023-05-23T08:33:58;6.03;;;2.45;;
70320;SDS011;61127;55.826;37.046;2023-05-23T08:36:53;8.45;;;2.25;;
70320;SDS011;61127;55.826;37.046;2023-05-23T08:39:20;14.27;;;3.70;;
70320;SDS011;61127;55.826;37.046;2023-05-23T08:42:07;11.20;;;3.67;;
70320;SDS011;61127;55.826;37.046;2023-05-23T08:44:33;9.52;;;3.40;;
70320;SDS011;61127;55.826;37.046;2023-05-23T08:47:02;9.88;;;3.00;;
70320;SDS011;61127;55.826;37.046;2023-05-23T08:49:46;6.53;;;2.47;;
70320;SDS011;61127;55.826;37.046;2023-05-23T08:52:14;9.02;;;2.42;;
70320;SDS011;61127;55.826;37.046;2023-05-23T08:54:49;4.67;;;2.10;;
70320;SDS011;61127;55.826;37.046;2023-05-23T08:57:17;7.13;;;2.40;;
70320;SDS011;61127;55.826;37.046;2023-05-23T08:59:48;6.63;;;2.33;;
70320;SDS011;61127;55.826;37.046;2023-05-23T09:02:18;5.43;;;2.20;;
70320;SDS011;61127;55.826;37.046;2023-05-23T09:04:48;7.20;;;2.30;;
70320;SDS011;61127;55.826;37.046;2023-05-23T09:07:19;8.23;;;2.57;;
70320;SDS011;61127;55.826;37.046;2023-05-23T09:09:48;5.88;;;2.25;;
70320;SDS011;61127;55.826;37.046;2023-05-23T09:12:24;5.40;;;2.10;;
70320;SDS011;61127;55.826;37.046;2023-05-23T09:15:56;8.82;;;2.50;;
70320;SDS011;61127;55.826;37.046;2023-05-23T09:18:35;8.30;;;2.40;;
70320;SDS011;61127;55.826;37.046;2023-05-23T09:21:09;14.57;;;2.20;;
70320;SDS011;61127;55.826;37.046;2023-05-23T09:23:42;9.50;;;2.22;;
70320;SDS011;61127;55.826;37.046;2023-05-23T09:26:10;7.45;;;2.25;;
70320;SDS011;61127;55.826;37.046;2023-05-23T09:28:38;4.15;;;2.30;;
70320;SDS011;61127;55.826;37.046;2023-05-23T09:31:08;9.38;;;2.90;;
70320;SDS011;61127;55.826;37.046;2023-05-23T09:33:38;7.30;;;2.90;;
70320;SDS011;61127;55.826;37.046;2023-05-23T09:36:12;12.13;;;3.63;;
70320;SDS011;61127;55.826;37.046;2023-05-23T09:38:43;9.38;;;3.33;;
70320;SDS011;61127;55.826;37.046;2023-05-23T09:41:10;9.30;;;3.38;;
70320;SDS011;61127;55.826;37.046;2023-05-23T09:43:37;12.55;;;3.53;;
70320;SDS011;61127;55.826;37.046;2023-05-23T09:46:08;10.87;;;2.90;;
70320;SDS011;61127;55.826;37.046;2023-05-23T09:48:35;12.93;;;2.80;;
70320;SDS011;61127;55.826;37.046;2023-05-23T09:51:04;11.35;;;3.25;;
70320;SDS011;61127;55.826;37.046;2023-05-23T09:53:31;7.80;;;2.83;;
70320;SDS011;61127;55.826;37.046;2023-05-23T09:55:58;8.77;;;3.10;;
70320;SDS011;61127;55.826;37.046;2023-05-23T09:58:25;9.80;;;3.40;;
70320;SDS011;61127;55.826;37.046;2023-05-23T10:01:00;8.30;;;3.05;;
70320;SDS011;61127;55.826;37.046;2023-05-23T10:03:44;8.52;;;3.10;;
70320;SDS011;61127;55.826;37.046;2023-05-23T10:06:20;12.15;;;3.15;;
70320;SDS011;61127;55.826;37.046;2023-05-23T10:08:56;11.57;;;3.33;;
70320;SDS011;61127;55.826;37.046;2023-05-23T10:14:01;6.82;;;3.72;;
70320;SDS011;61127;55.826;37.046;2023-05-23T10:19:04;10.68;;;3.10;;
70320;SDS011;61127;55.826;37.046;2023-05-23T10:21:37;7.80;;;3.50;;
70320;SDS011;61127;55.826;37.046;2023-05-23T10:24:11;11.27;;;3.97;;
70320;SDS011;61127;55.826;37.046;2023-05-23T10:26:38;14.63;;;3.63;;
70320;SDS011;61127;55.826;37.046;2023-05-23T10:29:05;13.93;;;3.60;;
70320;SDS011;61127;55.826;37.046;2023-05-23T10:31:31;10.85;;;3.60;;
70320;SDS011;61127;55.826;37.046;2023-05-23T10:34:11;11.30;;;4.28;;
70320;SDS011;61127;55.826;37.046;2023-05-23T10:39:20;8.10;;;4.13;;
70320;SDS011;61127;55.826;37.046;2023-05-23T10:41:57;11.95;;;4.65;;
70320;SDS011;61127;55.826;37.046;2023-05-23T10:44:28;8.30;;;4.63;;
70320;SDS011;61127;55.826;37.046;2023-05-23T10:46:58;11.82;;;4.05;;
70320;SDS011;61127;55.826;37.046;2023-05-23T10:49:39;13.57;;;5.03;;
70320;SDS011;61127;55.826;37.046;2023-05-23T10:52:10;7.28;;;4.30;;
70320;SDS011;61127;55.826;37.046;2023-05-23T10:57:14;10.18;;;4.10;;
70320;SDS011;61127;55.826;37.046;2023-05-23T10:59:44;11.77;;;4.22;;
70320;SDS011;61127;55.826;37.046;2023-05-23T11:02:15;10.43;;;3.50;;
70320;SDS011;61127;55.826;37.046;2023-05-23T11:04:43;8.27;;;3.28;;
70320;SDS011;61127;55.826;37.046;2023-05-23T11:07:29;5.82;;;2.75;;
70320;SDS011;61127;55.826;37.046;2023-05-23T11:10:07;7.68;;;2.78;;
70320;SDS011;61127;55.826;37.046;2023-05-23T11:17:53;6.53;;;2.65;;
70320;SDS011;61127;55.826;37.046;2023-05-23T11:20:22;7.40;;;3.08;;
70320;SDS011;61127;55.826;37.046;2023-05-23T11:22:52;9.02;;;2.80;;
70320;SDS011;61127;55.826;37.046;2023-05-23T11:25:20;8.45;;;3.17;;
70320;SDS011;61127;55.826;37.046;2023-05-23T11:27:47;6.10;;;2.80;;
70320;SDS011;61127;55.826;37.046;2023-05-23T11:30:15;13.23;;;3.47;;
70320;SDS011;61127;55.826;37.046;2023-05-23T11:32:49;6.60;;;2.97;;
70320;SDS011;61127;55.826;37.046;2023-05-23T11:35:16;6.32;;;3.10;;
70320;SDS011;61127;55.826;37.046;2023-05-23T11:37:42;6.53;;;3.50;;
70320;SDS011;61127;55.826;37.046;2023-05-23T11:42:56;8.65;;;3.40;;
70320;SDS011;61127;55.826;37.046;2023-05-23T11:45:23;10.52;;;3.28;;
70320;SDS011;61127;55.826;37.046;2023-05-23T11:47:50;9.30;;;3.35;;
70320;SDS011;61127;55.826;37.046;2023-05-23T11:50:19;7.27;;;3.87;;
70320;SDS011;61127;55.826;37.046;2023-05-23T11:52:46;8.43;;;4.18;;
70320;SDS011;61127;55.826;37.046;2023-05-23T11:55:19;9.98;;;4.28;;
70320;SDS011;61127;55.826;37.046;2023-05-23T11:57:47;9.25;;;4.43;;
70320;SDS011;61127;55.826;37.046;2023-05-23T12:00:14;9.73;;;4.35;;
70320;SDS011;61127;55.826;37.046;2023-05-23T12:02:41;6.40;;;4.27;;
70320;SDS011;61127;55.826;37.046;2023-05-23T12:05:09;9.50;;;4.70;;
70320;SDS011;61127;55.826;37.046;2023-05-23T12:07:41;9.57;;;5.05;;
70320;SDS011;61127;55.826;37.046;2023-05-23T12:10:15;11.40;;;5.30;;
70320;SDS011;61127;55.826;37.046;2023-05-23T12:12:42;11.00;;;4.40;;
70320;SDS011;61127;55.826;37.046;2023-05-23T12:15:09;9.53;;;5.07;;
70320;SDS011;61127;55.826;37.046;2023-05-23T12:17:37;8.15;;;4.90;;
70320;SDS011;61127;55.826;37.046;2023-05-23T12:20:04;8.52;;;5.03;;
70320;SDS011;61127;55.826;37.046;2023-05-23T12:22:32;9.98;;;5.43;;
70320;SDS011;61127;55.826;37.046;2023-05-23T12:24:58;11.18;;;5.80;;
70320;SDS011;61127;55.826;37.046;2023-05-23T12:27:28;9.47;;;5.47;;
70320;SDS011;61127;55.826;37.046;2023-05-23T12:30:10;11.43;;;5.95;;
70320;SDS011;61127;55.826;37.046;2023-05-23T12:32:42;11.98;;;6.32;;
70320;SDS011;61127;55.826;37.046;2023-05-23T12:35:12;12.27;;;6.38;;
70320;SDS011;61127;55.826;37.046;2023-05-23T12:37:43;10.20;;;6.10;;
70320;SDS011;61127;55.826;37.046;2023-05-23T12:40:14;14.30;;;6.33;;
70320;SDS011;61127;55.826;37.046;2023-05-23T12:42:51;13.32;;;7.18;;
70320;SDS011;61127;55.826;37.046;2023-05-23T12:45:37;11.50;;;6.82;;
70320;SDS011;61127;55.826;37.046;2023-05-23T12:48:03;12.95;;;6.63;;
70320;SDS011;61127;55.826;37.046;2023-05-23T12:50:33;13.25;;;7.53;;
70320;SDS011;61127;55.826;37.046;2023-05-23T12:53:00;12.73;;;7.50;;
70320;SDS011;61127;55.826;37.046;2023-05-23T12:55:26;14.25;;;7.38;;
70320;SDS011;61127;55.826;37.046;2023-05-23T12:57:56;11.52;;;7.10;;
70320;SDS011;61127;55.826;37.046;2023-05-23T13:00:22;13.50;;;8.10;;
70320;SDS011;61127;55.826;37.046;2023-05-23T13:02:48;14.77;;;8.10;;
70320;SDS011;61127;55.826;37.046;2023-05-23T13:05:16;13.73;;;8.00;;
70320;SDS011;61127;55.826;37.046;2023-05-23T13:07:42;12.05;;;7.55;;
70320;SDS011;61127;55.826;37.046;2023-05-23T13:10:11;14.57;;;7.60;;
70320;SDS011;61127;55.826;37.046;2023-05-23T13:12:54;15.43;;;7.88;;
70320;SDS011;61127;55.826;37.046;2023-05-23T13:15:20;15.60;;;9.03;;
70320;SDS011;61127;55.826;37.046;2023-05-23T13:17:46;16.92;;;7.97;;
70320;SDS011;61127;55.826;37.046;2023-05-23T13:20:15;13.73;;;8.70;;
70320;SDS011;61127;55.826;37.046;2023-05-23T13:22:41;17.52;;;8.45;;
70320;SDS011;61127;55.826;37.046;2023-05-23T13:25:10;18.17;;;9.10;;
70320;SDS011;61127;55.826;37.046;2023-05-23T13:27:39;13.35;;;8.98;;
70320;SDS011;61127;55.826;37.046;2023-05-23T13:30:05;13.43;;;8.85;;
70320;SDS011;61127;55.826;37.046;2023-05-23T13:32:31;16.23;;;9.27;;
70320;SDS011;61127;55.826;37.046;2023-05-23T13:34:57;17.20;;;8.93;;
70320;SDS011;61127;55.826;37.046;2023-05-23T13:37:23;16.02;;;9.05;;
70320;SDS011;61127;55.826;37.046;2023-05-23T13:39:50;12.88;;;8.25;;
70320;SDS011;61127;55.826;37.046;2023-05-23T13:42:16;14.93;;;9.00;;
70320;SDS011;61127;55.826;37.046;2023-05-23T13:44:44;14.50;;;9.00;;
70320;SDS011;61127;55.826;37.046;2023-05-23T13:47:13;19.08;;;9.68;;
70320;SDS011;61127;55.826;37.046;2023-05-23T13:49:40;17.58;;;9.30;;
70320;SDS011;61127;55.826;37.046;2023-05-23T13:52:10;17.83;;;9.60;;
70320;SDS011;61127;55.826;37.046;2023-05-23T13:54:39;13.82;;;8.82;;
70320;SDS011;61127;55.826;37.046;2023-05-23T13:57:06;15.50;;;9.27;;
70320;SDS011;61127;55.826;37.046;2023-05-23T13:59:32;15.90;;;9.40;;
70320;SDS011;61127;55.826;37.046;2023-05-23T14:01:58;13.63;;;9.45;;
70320;SDS011;61127;55.826;37.046;2023-05-23T14:04:24;15.00;;;9.70;;
70320;SDS011;61127;55.826;37.046;2023-05-23T14:06:50;15.53;;;8.80;;
70320;SDS011;61127;55.826;37.046;2023-05-23T14:09:19;13.93;;;9.53;;
70320;SDS011;61127;55.826;37.046;2023-05-23T14:11:45;16.35;;;9.52;;
70320;SDS011;61127;55.826;37.046;2023-05-23T14:14:15;17.92;;;9.10;;
70320;SDS011;61127;55.826;37.046;2023-05-23T14:16:41;12.38;;;8.82;;
70320;SDS011;61127;55.826;37.046;2023-05-23T14:19:07;14.13;;;8.68;;
70320;SDS011;61127;55.826;37.046;2023-05-23T14:21:33;14.07;;;8.90;;
70320;SDS011;61127;55.826;37.046;2023-05-23T14:23:59;14.25;;;9.40;;
70320;SDS011;61127;55.826;37.046;2023-05-23T14:26:25;15.00;;;8.93;;
70320;SDS011;61127;55.826;37.046;2023-05-23T14:28:51;16.13;;;8.57;;
70320;SDS011;61127;55.826;37.046;2023-05-23T14:31:17;12.37;;;8.33;;
70320;SDS011;61127;55.826;37.046;2023-05-23T14:33:43;13.10;;;8.55;;
70320;SDS011;61127;55.826;37.046;2023-05-23T14:36:09;12.18;;;7.93;;
70320;SDS011;61127;55.826;37.046;2023-05-23T14:38:35;12.30;;;7.20;;
70320;SDS011;61127;55.826;37.046;2023-05-23T14:41:04;10.83;;;7.00;;
70320;SDS011;61127;55.826;37.046;2023-05-23T14:43:30;10.13;;;6.78;;
70320;SDS011;61127;55.826;37.046;2023-05-23T14:45:56;11.85;;;7.45;;
70320;SDS011;61127;55.826;37.046;2023-05-23T14:48:22;10.77;;;7.38;;
70320;SDS011;61127;55.826;37.046;2023-05-23T14:50:48;16.10;;;8.35;;
70320;SDS011;61127;55.826;37.046;2023-05-23T14:53:14;11.33;;;8.43;;
70320;SDS011;61127;55.826;37.046;2023-05-23T14:55:40;15.68;;;9.23;;
70320;SDS011;61127;55.826;37.046;2023-05-23T14:58:06;15.10;;;9.20;;
70320;SDS011;61127;55.826;37.046;2023-05-23T15:00:32;14.57;;;8.60;;
70320;SDS011;61127;55.826;37.046;2023-05-23T15:02:58;14.60;;;8.27;;